Time;durP1;ratioP1;P1;durP2;ratioP2;P2;SDS_P1;SDS_P2;PMS_P1;PMS_P2;Temp;Humidity;BMP_temperature;BMP_pressure;BME280_temperature;BME280_humidity;BME280_pressure;Samples;Min_cycle;Max_cycle;Signal;HPM_P1;HPM_P2
2022/09/10 00:02:12;;;;;;;4.40;2.20;;;15.20;30.00;;;-142.72;100.00;65101.41;4921350;29;20424;-75
2022/09/10 00:04:41;;;;;;;5.07;2.77;;;15.20;44.50;;;-142.72;100.00;65101.41;4920738;29;20424;-74
2022/09/10 00:07:12;;;;;;;2.03;1.67;;;15.10;99.90;;;-142.72;100.00;65101.41;4924230;29;20445;-73
2022/09/10 00:09:41;;;;;;;4.30;2.03;;;15.00;99.90;;;-142.72;100.00;65101.41;4925333;29;20477;-74
2022/09/10 00:12:10;;;;;;;5.67;2.70;;;15.00;99.90;;;-142.72;100.00;65101.41;4922301;29;20470;-73
2022/09/10 00:14:39;;;;;;;3.37;2.10;;;15.00;99.90;;;-142.72;100.00;65101.41;4908884;29;20458;-73
2022/09/10 00:17:08;;;;;;;2.33;2.00;;;15.00;99.90;;;-142.72;100.00;65101.41;4921675;29;20432;-74
2022/09/10 00:19:37;;;;;;;8.40;2.63;;;15.10;99.90;;;-142.72;100.00;65101.41;4924457;29;20472;-74
2022/09/10 00:22:06;;;;;;;3.73;2.80;;;15.00;99.90;;;-142.72;100.00;65101.41;4925515;29;20971;-75
2022/09/10 00:24:37;;;;;;;3.50;1.83;;;14.90;1.00;;;-142.72;100.00;65101.41;4925512;29;20493;-74
2022/09/10 00:27:06;;;;;;;4.80;3.13;;;14.90;99.90;;;-142.72;100.00;65101.41;4927410;29;20414;-74
2022/09/10 00:29:35;;;;;;;3.70;2.40;;;14.90;99.90;;;-142.72;100.00;65101.41;4928833;29;20540;-73
2022/09/10 00:32:04;;;;;;;3.13;1.83;;;14.90;16.60;;;-142.72;100.00;65101.41;4928526;29;20447;-74
2022/09/10 00:34:33;;;;;;;10.00;5.13;;;14.90;30.40;;;-142.72;100.00;65101.41;4929191;29;20497;-73
2022/09/10 00:37:02;;;;;;;4.87;3.37;;;15.00;1.00;;;-142.72;100.00;65101.41;4918138;29;20485;-73
2022/09/10 00:39:31;;;;;;;4.53;2.60;;;15.00;1.00;;;-142.72;100.00;65101.41;4924739;29;20580;-74
2022/09/10 00:42:02;;;;;;;3.20;2.10;;;14.90;1.00;;;-142.72;100.00;65101.41;4928433;29;20444;-74
2022/09/10 00:45:04;;;;;;;3.20;2.73;;;14.90;1.00;;;-142.72;100.00;65101.41;4928407;29;20456;-74
2022/09/10 00:47:39;;;;;;;4.17;2.90;;;14.80;99.90;;;-142.72;100.00;65101.41;4924500;29;20775;-74
2022/09/10 00:50:20;;;;;;;3.37;2.47;;;14.80;99.90;;;-142.72;100.00;65101.41;4919703;29;20480;-74
2022/09/10 00:52:52;;;;;;;3.03;2.47;;;14.80;1.00;;;-142.72;100.00;65101.41;4920616;29;20780;-74
2022/09/10 00:55:22;;;;;;;5.20;2.00;;;14.70;1.00;;;-142.72;100.00;65101.41;4938235;29;20504;-74
2022/09/10 00:58:00;;;;;;;4.00;2.73;;;14.60;99.90;;;-142.72;100.00;65101.41;4937774;29;20446;-74
2022/09/10 01:00:30;;;;;;;4.20;2.50;;;14.60;1.00;;;-142.72;100.00;65101.41;4907141;29;20473;-73
2022/09/10 01:02:59;;;;;;;2.97;2.70;;;14.70;1.00;;;-142.72;100.00;65101.41;4914079;29;20433;-75
2022/09/10 01:05:29;;;;;;;5.00;3.10;;;14.60;1.00;;;-142.72;100.00;65101.41;4898417;29;20454;-75
2022/09/10 01:07:58;;;;;;;2.00;1.80;;;14.60;99.90;;;-142.72;100.00;65101.41;4906723;29;20454;-74
2022/09/10 01:10:33;;;;;;;8.53;3.43;;;14.60;1.00;;;-142.72;100.00;65101.41;4909157;29;20441;-74
2022/09/10 01:13:26;;;;;;;5.03;3.03;;;14.50;1.00;;;-142.72;100.00;65101.41;4926944;29;20509;-74
2022/09/10 01:16:09;;;;;;;5.20;3.47;;;14.50;99.90;;;-142.72;100.00;65101.41;4941742;29;20427;-74
2022/09/10 01:18:52;;;;;;;5.20;3.17;;;14.40;99.90;;;-142.72;100.00;65101.41;4920910;29;20469;-73
2022/09/10 01:21:29;;;;;;;4.70;3.73;;;14.30;99.90;;;-142.72;100.00;65101.41;4908647;29;20470;-73
2022/09/10 01:24:36;;;;;;;5.50;3.13;;;14.30;99.90;;;-142.72;100.00;65101.41;4916410;29;20459;-74
2022/09/10 01:27:34;;;;;;;3.37;3.07;;;14.20;99.90;;;-142.72;100.00;65101.41;4916984;29;20424;-75
2022/09/10 01:30:11;;;;;;;4.43;4.03;;;14.20;99.90;;;-142.72;100.00;65101.41;4914543;29;20462;-74
2022/09/10 01:32:56;;;;;;;6.10;4.37;;;14.20;99.90;;;-142.72;100.00;65101.41;4915374;29;20457;-74
2022/09/10 01:35:38;;;;;;;4.77;3.90;;;14.20;99.90;;;-142.72;100.00;65101.41;4915755;29;20544;-74
2022/09/10 01:38:13;;;;;;;5.73;3.80;;;14.30;99.90;;;-142.72;100.00;65101.41;4925415;29;20428;-74
2022/09/10 01:40:45;;;;;;;4.03;3.73;;;14.40;99.90;;;-142.72;100.00;65101.41;4914617;29;21030;-75
2022/09/10 01:46:32;;;;;;;4.43;3.20;;;14.20;99.90;;;-142.72;100.00;65101.41;4912696;29;20481;-73
2022/09/10 01:49:27;;;;;;;4.73;3.43;;;14.20;99.90;;;-142.72;100.00;65101.41;4940354;29;20431;-74
2022/09/10 01:52:24;;;;;;;11.13;4.50;;;14.20;99.90;;;-142.72;100.00;65101.41;4918380;29;20457;-74
2022/09/10 01:55:11;;;;;;;3.40;3.10;;;14.20;99.90;;;-142.72;100.00;65101.41;4937743;29;20445;-71
2022/09/10 01:57:57;;;;;;;5.30;3.70;;;14.30;99.90;;;-142.72;100.00;65101.41;4909897;29;20465;-73
2022/09/10 02:00:41;;;;;;;3.80;2.93;;;14.20;99.90;;;-142.72;100.00;65101.41;4908128;29;20473;-72
2022/09/10 02:03:17;;;;;;;4.20;3.10;;;14.20;99.90;;;-142.72;100.00;65101.41;4920099;29;20449;-72
2022/09/10 02:05:52;;;;;;;5.03;4.27;;;14.20;99.90;;;-142.72;100.00;65101.41;4918103;29;20472;-73
2022/09/10 02:08:29;;;;;;;4.40;3.27;;;14.10;99.90;;;-142.72;100.00;65101.41;4901712;29;20465;-73
2022/09/10 02:11:05;;;;;;;6.53;2.40;;;14.10;99.90;;;-142.72;100.00;65101.41;4892952;29;20434;-74
2022/09/10 02:13:38;;;;;;;4.30;3.40;;;14.00;99.90;;;-142.72;100.00;65101.41;4916832;29;20826;-72
2022/09/10 02:16:36;;;;;;;3.63;2.90;;;14.10;99.90;;;-142.72;100.00;65101.41;4913713;29;20463;-73
2022/09/10 02:19:10;;;;;;;3.97;2.50;;;14.10;99.90;;;-142.72;100.00;65101.41;4892446;29;20422;-72
2022/09/10 02:21:39;;;;;;;3.00;2.50;;;14.10;99.90;;;-142.72;100.00;65101.41;4896442;29;20503;-73
2022/09/10 02:24:12;;;;;;;6.80;4.10;;;14.10;99.90;;;-142.72;100.00;65101.41;4899610;29;20473;-74
2022/09/10 02:26:46;;;;;;;3.90;2.53;;;14.10;99.90;;;-142.72;100.00;65101.41;4906521;29;20412;-73
2022/09/10 02:29:18;;;;;;;2.90;2.43;;;14.10;99.90;;;-142.72;100.00;65101.41;4897526;29;21349;-74
2022/09/10 02:31:47;;;;;;;11.33;3.87;;;14.10;99.90;;;-142.72;100.00;65101.41;4919410;29;21232;-71
2022/09/10 02:34:19;;;;;;;3.70;3.10;;;14.00;99.90;;;-142.72;100.00;65101.41;4903490;29;20459;-73
2022/09/10 02:36:49;;;;;;;2.70;2.27;;;13.90;99.90;;;-142.72;100.00;65101.41;4906915;29;20812;-72
2022/09/10 02:39:18;;;;;;;4.13;2.90;;;13.90;99.90;;;-142.72;100.00;65101.41;4901681;29;20473;-74
2022/09/10 02:41:47;;;;;;;3.27;2.97;;;13.90;99.90;;;-142.72;100.00;65101.41;4918630;29;20452;-73
2022/09/10 02:44:16;;;;;;;12.00;4.00;;;14.00;99.90;;;-142.72;100.00;65101.41;4904718;29;20516;-74
2022/09/10 02:46:45;;;;;;;4.60;3.73;;;13.90;99.90;;;-142.72;100.00;65101.41;4900630;29;20534;-72
2022/09/10 02:49:15;;;;;;;8.13;3.10;;;14.00;99.90;;;-142.72;100.00;65101.41;4944512;29;20509;-73
2022/09/10 02:51:45;;;;;;;5.03;2.80;;;13.90;99.90;;;-142.72;100.00;65101.41;4924803;29;20421;-73
2022/09/10 02:54:13;;;;;;;4.60;3.00;;;13.80;99.90;;;-142.72;100.00;65101.41;4921558;29;20474;-72
2022/09/10 02:56:43;;;;;;;4.60;2.73;;;13.70;99.90;;;-142.72;100.00;65101.41;4909186;29;20802;-72
2022/09/10 02:59:13;;;;;;;6.00;3.13;;;13.80;99.90;;;-142.72;100.00;65101.41;4912272;29;20526;-74
2022/09/10 03:01:42;;;;;;;2.50;2.30;;;13.90;99.90;;;-142.72;100.00;65101.41;4909312;29;20480;-72
2022/09/10 03:04:11;;;;;;;4.23;2.77;;;14.00;99.90;;;-142.72;100.00;65101.41;4949617;29;20496;-75
2022/09/10 03:06:42;;;;;;;5.77;3.40;;;13.90;99.90;;;-142.72;100.00;65101.41;4910552;29;20532;-72
2022/09/10 03:09:12;;;;;;;5.00;2.80;;;13.90;99.90;;;-142.72;100.00;65101.41;4919626;29;20951;-72
2022/09/10 03:11:41;;;;;;;2.50;2.30;;;13.90;99.90;;;-142.72;100.00;65101.41;4909534;29;20416;-73
2022/09/10 03:14:11;;;;;;;6.40;2.20;;;13.90;99.90;;;-142.72;100.00;65101.41;4899955;29;20456;-72
2022/09/10 03:16:40;;;;;;;3.50;3.20;;;13.90;99.90;;;-142.72;100.00;65101.41;4915718;29;20425;-72
2022/09/10 03:19:09;;;;;;;2.90;2.60;;;13.90;99.90;;;-142.72;100.00;65101.41;4900503;29;20511;-74
2022/09/10 03:21:40;;;;;;;5.67;3.13;;;13.80;99.90;;;-142.72;100.00;65101.41;4910546;29;20564;-74
2022/09/10 03:24:12;;;;;;;5.00;2.60;;;13.80;99.90;;;-142.72;100.00;65101.41;4908791;29;20455;-72
2022/09/10 03:26:45;;;;;;;5.30;3.03;;;13.80;99.90;;;-142.72;100.00;65101.41;4904203;29;20975;-75
2022/09/10 03:29:16;;;;;;;3.20;2.83;;;13.90;99.90;;;-142.72;100.00;65101.41;4893130;29;20434;-74
2022/09/10 03:31:45;;;;;;;12.10;2.77;;;13.80;99.90;;;-142.72;100.00;65101.41;4905963;29;20468;-73
2022/09/10 03:34:16;;;;;;;6.30;2.60;;;13.90;99.90;;;-142.72;100.00;65101.41;4896924;29;20565;-73
2022/09/10 03:36:47;;;;;;;5.10;3.37;;;13.90;99.90;;;-142.72;100.00;65101.41;4906696;29;20453;-72
2022/09/10 03:39:17;;;;;;;4.10;3.70;;;14.00;99.90;;;-142.72;100.00;65101.41;4915735;29;20508;-75
2022/09/10 03:41:47;;;;;;;3.53;3.03;;;14.00;99.90;;;-142.72;100.00;65101.41;4904504;29;20496;-74
2022/09/10 03:44:17;;;;;;;3.40;2.73;;;14.00;99.90;;;-142.72;100.00;65101.41;4894177;29;20466;-72
2022/09/10 03:46:47;;;;;;;8.03;3.03;;;13.90;99.90;;;-142.72;100.00;65101.41;4899386;29;20996;-74
2022/09/10 03:49:18;;;;;;;4.87;2.70;;;13.90;99.90;;;-142.72;100.00;65101.41;4899903;29;20437;-74
2022/09/10 03:51:47;;;;;;;6.53;3.03;;;13.90;99.90;;;-142.72;100.00;65101.41;4913802;29;20475;-71
2022/09/10 03:54:18;;;;;;;10.53;2.80;;;13.80;99.90;;;-142.72;100.00;65101.41;4899837;29;20838;-72
2022/09/10 03:56:47;;;;;;;3.60;3.20;;;13.80;99.90;;;-142.72;100.00;65101.41;4900021;29;20421;-72
2022/09/10 03:59:16;;;;;;;2.40;2.20;;;13.80;99.90;;;-142.72;100.00;65101.41;4909091;29;20446;-73
2022/09/10 04:01:46;;;;;;;6.20;3.07;;;13.80;99.90;;;-142.72;100.00;65101.41;4933362;29;20470;-75
2022/09/10 04:04:15;;;;;;;3.30;3.00;;;13.70;99.90;;;-142.72;100.00;65101.41;4902829;29;20459;-72
2022/09/10 04:06:45;;;;;;;4.30;3.20;;;13.70;99.90;;;-142.72;100.00;65101.41;4904682;29;20432;-73
2022/09/10 04:09:15;;;;;;;4.97;2.70;;;13.60;99.90;;;-142.72;100.00;65101.41;4915413;29;20429;-73
2022/09/10 04:11:45;;;;;;;3.60;2.43;;;13.60;99.90;;;-142.72;100.00;65101.41;4896653;29;20810;-73
2022/09/10 04:14:14;;;;;;;3.13;2.83;;;13.50;99.90;;;-142.72;100.00;65101.41;4889822;29;20464;-71
2022/09/10 04:16:44;;;;;;;3.90;3.30;;;13.50;99.90;;;-142.72;100.00;65101.41;4905781;29;20526;-71
2022/09/10 04:19:15;;;;;;;4.60;3.40;;;13.60;99.90;;;-142.72;100.00;65101.41;4894603;29;20464;-72
2022/09/10 04:21:44;;;;;;;5.23;3.10;;;13.60;99.90;;;-142.72;100.00;65101.41;4889028;29;20482;-73
2022/09/10 04:24:13;;;;;;;4.80;3.63;;;13.60;99.90;;;-142.72;100.00;65101.41;4896201;29;20499;-71
2022/09/10 04:26:42;;;;;;;4.10;2.90;;;13.50;99.90;;;-142.72;100.00;65101.41;4899411;29;20429;-72
2022/09/10 04:29:14;;;;;;;6.47;3.40;;;13.40;99.90;;;-142.72;100.00;65101.41;4900528;29;20527;-73
2022/09/10 04:31:45;;;;;;;3.70;3.23;;;13.40;99.90;;;-142.72;100.00;65101.41;4895801;29;20433;-74
2022/09/10 04:34:17;;;;;;;5.97;3.50;;;13.40;99.90;;;-142.72;100.00;65101.41;4896529;29;20478;-74
2022/09/10 04:36:46;;;;;;;4.77;3.23;;;13.40;99.90;;;-142.72;100.00;65101.41;4893725;29;20438;-73
2022/09/10 04:39:15;;;;;;;5.47;3.87;;;13.30;99.90;;;-142.72;100.00;65101.41;4902372;29;20960;-73
2022/09/10 04:41:44;;;;;;;5.10;3.60;;;13.40;99.90;;;-142.72;100.00;65101.41;4912261;29;20497;-72
2022/09/10 04:44:14;;;;;;;4.00;3.57;;;13.40;99.90;;;-142.72;100.00;65101.41;4907122;29;20830;-73
2022/09/10 04:46:43;;;;;;;3.60;2.83;;;13.40;99.90;;;-142.72;100.00;65101.41;4896522;29;20516;-72
2022/09/10 04:49:12;;;;;;;4.10;3.70;;;13.50;99.90;;;-142.72;100.00;65101.41;4890248;29;20469;-72
2022/09/10 04:51:41;;;;;;;3.80;3.00;;;13.50;99.90;;;-142.72;100.00;65101.41;4915294;29;20669;-71
2022/09/10 04:54:13;;;;;;;3.80;2.87;;;13.60;99.90;;;-142.72;100.00;65101.41;4905709;29;20478;-72
2022/09/10 04:56:46;;;;;;;2.70;2.47;;;13.70;99.90;;;-142.72;100.00;65101.41;4900127;29;20452;-71
2022/09/10 04:59:17;;;;;;;3.53;2.73;;;13.70;99.90;;;-142.72;100.00;65101.41;4915080;29;20428;-74
2022/09/10 05:01:49;;;;;;;5.70;2.83;;;13.70;99.90;;;-142.72;100.00;65101.41;4912152;29;20433;-72
2022/09/10 05:04:18;;;;;;;4.67;3.00;;;13.80;99.90;;;-142.72;100.00;65101.41;4901833;29;20487;-73
2022/09/10 05:06:49;;;;;;;3.60;2.80;;;13.80;99.90;;;-142.72;100.00;65101.41;4903438;29;20439;-73
2022/09/10 05:09:18;;;;;;;3.30;2.57;;;13.70;99.90;;;-142.72;100.00;65101.41;4914129;29;20454;-72
2022/09/10 05:11:48;;;;;;;4.90;3.20;;;13.80;99.90;;;-142.72;100.00;65101.41;4904172;29;20483;-74
2022/09/10 05:14:22;;;;;;;4.97;3.20;;;13.80;99.90;;;-142.72;100.00;65101.41;4914599;29;20489;-72
2022/09/10 05:16:51;;;;;;;3.27;2.47;;;13.80;99.90;;;-142.72;100.00;65101.41;4912486;29;20464;-72
2022/09/10 05:19:20;;;;;;;7.43;2.97;;;13.90;99.90;;;-142.72;100.00;65101.41;4912747;29;20457;-72
2022/09/10 05:21:58;;;;;;;5.67;3.10;;;14.00;99.90;;;-142.72;100.00;65101.41;4899589;29;20425;-73
2022/09/10 05:24:27;;;;;;;9.43;3.37;;;14.00;29.40;;;-142.72;100.00;65101.41;4895791;29;20993;-72
2022/09/10 05:26:56;;;;;;;4.70;3.70;;;14.00;1.00;;;-142.72;100.00;65101.41;4887784;29;20976;-73
2022/09/10 05:29:26;;;;;;;2.70;2.50;;;14.00;1.00;;;-142.72;100.00;65101.41;4899526;29;20447;-71
2022/09/10 05:31:55;;;;;;;5.13;2.73;;;14.00;1.00;;;-142.72;100.00;65101.41;4895150;29;20470;-72
2022/09/10 05:34:25;;;;;;;6.10;2.80;;;14.10;1.00;;;-142.72;100.00;65101.41;4910053;29;20772;-71
2022/09/10 05:36:55;;;;;;;3.10;2.80;;;14.10;99.90;;;-142.72;100.00;65101.41;4894747;29;20437;-74
2022/09/10 05:39:24;;;;;;;3.40;3.10;;;14.20;58.30;;;-142.72;100.00;65101.41;4898017;29;20775;-75
2022/09/10 05:41:54;;;;;;;3.33;3.07;;;14.30;1.00;;;-142.72;100.00;65101.41;4917074;29;20515;-72
2022/09/10 05:44:25;;;;;;;3.13;2.70;;;14.40;1.00;;;-142.72;100.00;65101.41;4898788;29;20468;-73
2022/09/10 05:46:54;;;;;;;6.77;3.00;;;14.40;99.90;;;-142.72;100.00;65101.41;4896421;29;20566;-72
2022/09/10 05:49:23;;;;;;;4.20;2.80;;;14.60;99.90;;;-142.72;100.00;65101.41;4900065;29;20424;-72
2022/09/10 05:51:52;;;;;;;4.50;3.23;;;14.70;99.90;;;-142.72;100.00;65101.41;4903479;29;20446;-74
2022/09/10 05:54:21;;;;;;;7.03;3.13;;;14.80;75.50;;;-142.72;100.00;65101.41;4918247;29;20476;-75
2022/09/10 05:56:50;;;;;;;4.17;3.13;;;15.00;1.00;;;-142.72;100.00;65101.41;4914301;29;20446;-73
2022/09/10 05:59:19;;;;;;;2.97;2.73;;;15.10;1.00;;;-142.72;100.00;65101.41;4899879;29;20421;-73
2022/09/10 06:01:52;;;;;;;4.70;2.80;;;15.20;1.00;;;-142.72;100.00;65101.41;4900869;29;20455;-73
2022/09/10 06:04:23;;;;;;;4.80;3.27;;;15.30;99.90;;;-142.72;100.00;65101.41;4909622;29;21043;-72
2022/09/10 06:06:52;;;;;;;7.80;3.07;;;15.30;99.90;;;-142.72;100.00;65101.41;4893382;29;20947;-73
2022/09/10 06:09:21;;;;;;;4.70;3.30;;;15.60;99.90;;;-142.72;100.00;65101.41;4915615;29;20432;-72
2022/09/10 06:12:28;;;;;;;3.53;3.13;;;15.70;99.90;;;-142.72;100.00;65101.41;4895760;29;20435;-73
2022/09/10 06:14:57;;;;;;;4.47;3.13;;;15.90;99.90;;;-142.72;100.00;65101.41;4895216;29;20505;-74
2022/09/10 06:17:28;;;;;;;6.00;2.73;;;15.90;99.90;;;-142.72;100.00;65101.41;4898962;29;20679;-73
2022/09/10 06:19:57;;;;;;;5.20;2.77;;;16.00;99.90;;;-142.72;100.00;65101.41;4913283;29;20424;-73
2022/09/10 06:22:26;;;;;;;5.00;2.87;;;16.10;99.90;;;-142.72;100.00;65101.41;4902574;29;20436;-74
2022/09/10 06:24:55;;;;;;;12.37;2.90;;;16.10;99.90;;;-142.72;100.00;65101.41;4904583;29;20476;-75
2022/09/10 06:27:25;;;;;;;5.87;2.87;;;16.30;99.90;;;-142.72;100.00;65101.41;4901581;29;20442;-74
2022/09/10 06:29:55;;;;;;;3.90;2.90;;;16.40;99.90;;;-142.72;100.00;65101.41;4916307;29;20913;-72
2022/09/10 06:32:24;;;;;;;4.33;3.27;;;16.60;99.90;;;-142.72;100.00;65101.41;4916519;29;20462;-75
2022/09/10 06:34:55;;;;;;;4.00;2.90;;;16.70;99.90;;;-142.72;100.00;65101.41;4889536;29;20457;-74
2022/09/10 06:37:25;;;;;;;3.83;2.50;;;16.80;99.90;;;-142.72;100.00;65101.41;4899586;29;20465;-74
2022/09/10 06:39:55;;;;;;;2.60;2.40;;;16.80;93.40;;;-142.72;100.00;65101.41;4913772;29;20486;-76
2022/09/10 06:42:26;;;;;;;3.43;2.60;;;16.90;89.20;;;-142.72;100.00;65101.41;4935736;29;20457;-74
2022/09/10 06:45:04;;;;;;;4.47;2.70;;;16.90;81.50;;;-142.72;100.00;65101.41;4902460;29;20508;-72
2022/09/10 06:47:51;;;;;;;5.13;2.57;;;17.10;66.10;;;-142.72;100.00;65101.41;4908052;29;20445;-75
2022/09/10 06:50:55;;;;;;;4.80;3.17;;;17.10;59.10;;;-142.72;100.00;65101.41;4917833;29;20472;-76
2022/09/10 06:53:32;;;;;;;3.47;2.30;;;17.20;48.70;;;-142.72;100.00;65101.41;4916628;29;20455;-74
2022/09/10 06:56:04;;;;;;;3.07;2.77;;;17.10;56.80;;;-142.72;100.00;65101.41;4908326;29;20530;-73
2022/09/10 06:58:35;;;;;;;4.47;2.50;;;17.10;53.10;;;-142.72;100.00;65101.41;4909896;29;20944;-73
2022/09/10 07:01:09;;;;;;;3.80;2.33;;;17.10;52.00;;;-142.72;100.00;65101.41;4909706;29;20446;-76
2022/09/10 07:03:45;;;;;;;5.23;2.73;;;17.20;47.50;;;-142.72;100.00;65101.41;4935397;29;20993;-76
2022/09/10 07:06:18;;;;;;;5.70;2.40;;;17.30;44.90;;;-142.72;100.00;65101.41;4933574;29;21014;-73
2022/09/10 07:08:56;;;;;;;2.27;1.97;;;17.50;39.20;;;-142.72;100.00;65101.41;4894756;29;20520;-73
2022/09/10 07:11:31;;;;;;;3.33;3.00;;;17.60;31.00;;;-142.72;100.00;65101.41;4916660;29;20455;-74
2022/09/10 07:14:02;;;;;;;4.50;2.57;;;17.70;32.60;;;-142.72;100.00;65101.41;4912709;29;20532;-73
2022/09/10 07:16:34;;;;;;;8.80;2.30;;;17.60;25.20;;;-142.72;100.00;65101.41;4913690;29;20500;-74
2022/09/10 07:19:03;;;;;;;4.40;2.27;;;17.50;30.80;;;-142.72;100.00;65101.41;4916733;29;20489;-74
2022/09/10 07:21:39;;;;;;;3.23;2.37;;;17.50;27.70;;;-142.72;100.00;65101.41;4897342;29;20475;-73
2022/09/10 07:24:13;;;;;;;3.83;1.73;;;17.60;32.60;;;-142.72;100.00;65101.41;4908281;29;21078;-75
2022/09/10 07:27:09;;;;;;;3.10;2.10;;;17.80;32.90;;;-142.72;100.00;65101.41;4908369;29;20432;-73
2022/09/10 07:29:41;;;;;;;3.23;2.03;;;18.00;26.30;;;-142.72;100.00;65101.41;4904149;29;20451;-74
2022/09/10 07:32:17;;;;;;;4.00;2.80;;;18.10;21.60;;;-142.72;100.00;65101.41;4909243;29;21019;-73
2022/09/10 07:34:46;;;;;;;4.93;2.53;;;18.20;19.60;;;-142.72;100.00;65101.41;4923152;29;20470;-73
2022/09/10 07:37:17;;;;;;;2.43;1.70;;;18.30;18.00;;;-142.72;100.00;65101.41;4902041;29;20447;-74
2022/09/10 07:39:47;;;;;;;4.00;2.20;;;18.30;13.50;;;-142.72;100.00;65101.41;4918233;29;20459;-74
2022/09/10 07:42:17;;;;;;;4.93;2.70;;;18.40;10.50;;;-142.72;100.00;65101.41;4903136;29;20455;-74
2022/09/10 07:44:47;;;;;;;4.33;2.30;;;18.60;10.20;;;-142.72;100.00;65101.41;4960921;23;20470;-71
2022/09/10 07:47:15;;;;;;;3.40;2.53;;;18.60;6.30;;;-142.72;100.00;65101.41;4952460;28;20423;-71
2022/09/10 07:49:45;;;;;;;4.27;2.17;;;18.90;4.90;;;-142.72;100.00;65101.41;4949772;28;20465;-72
2022/09/10 07:52:14;;;;;;;5.37;3.30;;;18.80;2.50;;;-142.72;100.00;65101.41;4950875;28;20441;-71
2022/09/10 07:54:50;;;;;;;3.60;3.07;;;19.00;1.30;;;-142.72;100.00;65101.41;4964337;28;20904;-72
2022/09/10 07:57:20;;;;;;;2.90;2.27;;;19.00;1.00;;;-142.72;100.00;65101.41;4928396;29;20460;-73
2022/09/10 07:59:50;;;;;;;16.33;2.47;;;19.20;1.00;;;-142.72;100.00;65101.41;4994519;23;20526;-75
2022/09/10 08:02:24;;;;;;;5.07;3.07;;;19.30;1.00;;;-142.72;100.00;65101.41;4963471;28;20522;-73
2022/09/10 08:04:59;;;;;;;4.67;2.77;;;19.20;1.00;;;-142.72;100.00;65101.41;4962952;28;20487;-71
2022/09/10 08:07:28;;;;;;;4.60;2.10;;;19.20;1.00;;;-142.72;100.00;65101.41;4963013;28;20486;-73
2022/09/10 08:09:58;;;;;;;10.07;2.00;;;19.00;1.00;;;-142.72;100.00;65101.41;4974682;28;20493;-73
2022/09/10 08:12:27;;;;;;;2.43;1.70;;;19.00;1.00;;;-142.72;100.00;65101.41;4958711;28;20522;-73
2022/09/10 08:14:57;;;;;;;5.83;2.63;;;19.00;1.00;;;-142.72;100.00;65101.41;4956848;28;20467;-74
2022/09/10 08:17:30;;;;;;;3.43;1.77;;;19.20;1.00;;;-142.72;100.00;65101.41;4964438;28;20451;-71
2022/09/10 08:20:00;;;;;;;4.43;2.03;;;19.40;1.00;;;-142.72;100.00;65101.41;4952066;29;20866;-72
2022/09/10 08:22:30;;;;;;;2.10;1.90;;;19.60;1.00;;;-142.72;100.00;65101.41;4952425;28;20427;-72
2022/09/10 08:25:02;;;;;;;5.93;1.57;;;19.80;1.00;;;-142.72;100.00;65101.41;4949335;28;20518;-72
2022/09/10 08:27:34;;;;;;;3.03;2.03;;;19.80;1.00;;;-142.72;100.00;65101.41;4960005;28;20480;-72
2022/09/10 08:30:07;;;;;;;3.10;1.50;;;19.70;1.00;;;-142.72;100.00;65101.41;4954350;28;20455;-72
2022/09/10 08:32:37;;;;;;;4.77;1.63;;;19.60;1.00;;;-142.72;100.00;65101.41;4954467;28;20455;-74
2022/09/10 08:35:07;;;;;;;3.40;1.67;;;19.60;1.00;;;-142.72;100.00;65101.41;4971797;28;20468;-72
2022/09/10 08:37:38;;;;;;;3.67;1.40;;;19.50;1.00;;;-142.72;100.00;65101.41;4954937;28;20544;-71
2022/09/10 08:40:12;;;;;;;1.80;1.20;;;19.60;1.00;;;-142.72;100.00;65101.41;4970667;28;20802;-73
2022/09/10 08:42:48;;;;;;;1.97;1.03;;;19.60;1.00;;;-142.72;100.00;65101.41;4952234;28;20458;-74
2022/09/10 08:45:24;;;;;;;6.30;2.10;;;19.60;1.00;;;-142.72;100.00;65101.41;4951417;28;20829;-73
2022/09/10 08:48:02;;;;;;;2.63;1.43;;;19.70;1.00;;;-142.72;100.00;65101.41;4951603;28;20455;-74
2022/09/10 08:50:41;;;;;;;4.43;2.53;;;19.70;1.00;;;-142.72;100.00;65101.41;4956428;28;20494;-74
2022/09/10 08:53:25;;;;;;;5.20;1.60;;;19.90;1.00;;;-142.72;100.00;65101.41;4966038;28;20868;-70
2022/09/10 08:56:05;;;;;;;4.60;1.57;;;20.00;1.00;;;-142.72;100.00;65101.41;4941771;28;20475;-72
2022/09/10 08:58:44;;;;;;;4.90;1.40;;;20.10;1.00;;;-142.72;100.00;65101.41;4962837;28;20447;-73
2022/09/10 09:01:30;;;;;;;8.40;5.90;;;20.20;1.00;;;-142.72;100.00;65101.41;4964816;28;20503;-72
2022/09/10 09:04:05;;;;;;;3.33;2.60;;;20.20;1.00;;;-142.72;100.00;65101.41;4960467;28;20483;-73
2022/09/10 09:06:44;;;;;;;4.40;2.13;;;20.30;1.00;;;-142.72;100.00;65101.41;4952853;28;20483;-73
2022/09/10 09:09:13;;;;;;;2.20;1.70;;;20.50;1.00;;;-142.72;100.00;65101.41;4948060;28;20451;-74
2022/09/10 09:11:58;;;;;;;6.87;1.60;;;20.60;1.00;;;-142.72;100.00;65101.41;4957917;28;20555;-73
2022/09/10 09:14:49;;;;;;;2.60;1.60;;;20.60;1.00;;;-142.72;100.00;65101.41;4954198;28;20474;-71
2022/09/10 09:17:38;;;;;;;3.10;1.93;;;20.80;1.00;;;-142.72;100.00;65101.41;4971771;28;20460;-73
2022/09/10 09:20:18;;;;;;;7.37;1.20;;;20.90;1.00;;;-142.72;100.00;65101.41;4948104;28;20459;-72
2022/09/10 09:22:53;;;;;;;2.13;1.93;;;20.80;1.00;;;-142.72;100.00;65101.41;4944425;28;20454;-72
2022/09/10 09:25:45;;;;;;;1.90;1.43;;;20.90;1.00;;;-142.72;100.00;65101.41;4952382;28;20490;-72
2022/09/10 09:28:31;;;;;;;1.67;0.97;;;20.80;1.00;;;-142.72;100.00;65101.41;4938131;29;20645;-73
2022/09/10 09:31:10;;;;;;;3.50;1.40;;;20.90;1.00;;;-142.72;100.00;65101.41;4968760;28;20441;-72
2022/09/10 09:33:41;;;;;;;4.20;1.93;;;21.10;1.00;;;-142.72;100.00;65101.41;4950953;29;20450;-72
2022/09/10 09:36:19;;;;;;;3.57;1.70;;;21.20;1.00;;;-142.72;100.00;65101.41;4951894;28;20796;-72
2022/09/10 09:38:51;;;;;;;4.60;1.37;;;21.20;1.00;;;-142.72;100.00;65101.41;4944253;28;20476;-73
2022/09/10 09:41:32;;;;;;;6.07;1.80;;;21.50;1.00;;;-142.72;100.00;65101.41;4949748;28;20479;-73
2022/09/10 09:44:17;;;;;;;3.17;2.10;;;21.60;1.00;;;-142.72;100.00;65101.41;4952104;28;20463;-72
2022/09/10 09:46:45;;;;;;;5.00;1.43;;;21.50;1.00;;;-142.72;100.00;65101.41;4952289;28;20926;-72
2022/09/10 09:49:16;;;;;;;4.40;1.60;;;21.50;1.00;;;-142.72;100.00;65101.41;4954952;28;20458;-73
2022/09/10 09:51:50;;;;;;;2.50;1.60;;;21.50;1.00;;;-142.72;100.00;65101.41;4962780;28;20503;-72
2022/09/10 09:54:25;;;;;;;4.17;1.50;;;21.70;1.00;;;-142.72;100.00;65101.41;4951516;28;20474;-72
2022/09/10 09:57:19;;;;;;;1.90;1.43;;;21.60;1.00;;;-142.72;100.00;65101.41;4945043;29;20444;-72
2022/09/10 09:59:50;;;;;;;5.10;1.17;;;21.80;1.00;;;-142.72;100.00;65101.41;4958579;28;20825;-72
2022/09/10 10:02:23;;;;;;;8.83;1.63;;;22.10;1.00;;;-142.72;100.00;65101.41;4956509;28;20482;-73
2022/09/10 10:05:06;;;;;;;8.80;1.50;;;22.10;1.00;;;-142.72;100.00;65101.41;4953510;29;21001;-72
2022/09/10 10:07:36;;;;;;;4.27;1.30;;;21.90;1.00;;;-142.72;100.00;65101.41;4952188;29;20538;-72
2022/09/10 10:10:07;;;;;;;2.10;1.40;;;22.10;1.00;;;-142.72;100.00;65101.41;4951421;28;20994;-72
2022/09/10 10:12:51;;;;;;;5.30;1.20;;;22.60;1.00;;;-142.72;100.00;65101.41;4952413;28;20528;-71
2022/09/10 10:15:39;;;;;;;3.53;1.20;;;23.20;1.00;;;-142.72;100.00;65101.41;4956352;28;20459;-73
2022/09/10 10:18:35;;;;;;;3.63;3.27;;;23.10;1.00;;;-142.72;100.00;65101.41;4952955;28;20433;-73
2022/09/10 10:21:18;;;;;;;5.80;1.20;;;23.00;1.00;;;-142.72;100.00;65101.41;4928356;28;20463;-73
2022/09/10 10:23:49;;;;;;;2.80;1.37;;;23.00;1.00;;;-142.72;100.00;65101.41;4948199;29;20970;-72
2022/09/10 10:26:30;;;;;;;3.67;1.47;;;23.20;1.00;;;-142.72;100.00;65101.41;4948859;28;20551;-71
2022/09/10 10:29:05;;;;;;;1.40;0.70;;;23.70;1.00;;;-142.72;100.00;65101.41;4951152;28;20542;-71
2022/09/10 10:31:43;;;;;;;5.63;1.27;;;23.70;1.00;;;-142.72;100.00;65101.41;4953288;28;20452;-72
2022/09/10 10:34:41;;;;;;;1.50;1.00;;;23.60;1.00;;;-142.72;100.00;65101.41;4956976;28;20463;-72